createdAt,value
2023-03-17T00:00:50.701Z,65.77
2023-03-17T00:03:31.817Z,65.52
2023-03-17T00:06:02.356Z,65.24
2023-03-17T00:08:36.164Z,65.29
2023-03-17T00:11:04.808Z,65.01
2023-03-17T00:13:33.818Z,64.99
2023-03-17T00:16:07.736Z,64.68
2023-03-17T00:18:37.187Z,64.40
2023-03-17T00:21:06.179Z,64.24
2023-03-17T00:23:35.552Z,64.30
2023-03-17T00:26:03.919Z,64.51
2023-03-17T00:28:32.444Z,64.58
2023-03-17T00:31:03.558Z,64.67
2023-03-17T00:33:34.862Z,64.66
2023-03-17T00:36:03.692Z,64.58
2023-03-17T00:38:32.177Z,64.74
2023-03-17T00:41:00.713Z,64.75
2023-03-17T00:43:30.743Z,64.53
2023-03-17T00:45:59.172Z,64.57
2023-03-17T00:48:30.138Z,64.45
2023-03-17T00:50:58.774Z,64.70
2023-03-17T00:53:30.688Z,64.89
2023-03-17T00:56:00.987Z,64.48
2023-03-17T00:58:33.049Z,64.38
2023-03-17T01:01:01.622Z,64.05
2023-03-17T01:03:31.279Z,63.86
2023-03-17T01:06:00.575Z,63.68
2023-03-17T01:08:30.331Z,63.60
2023-03-17T01:10:59.667Z,63.72
2023-03-17T01:13:28.698Z,63.21
2023-03-17T01:15:57.944Z,63.01
2023-03-17T01:18:26.368Z,63.09
2023-03-17T01:20:54.776Z,63.00
2023-03-17T01:23:23.242Z,63.11
2023-03-17T01:25:51.872Z,63.15
2023-03-17T01:28:21.042Z,63.10
2023-03-17T01:30:50.193Z,63.02
2023-03-17T01:33:20.041Z,62.76
2023-03-17T01:35:52.284Z,62.67
2023-03-17T01:42:01.646Z,62.77
2023-03-17T01:44:30.930Z,62.88
2023-03-17T01:47:01.270Z,62.80
2023-03-17T01:49:35.688Z,62.86
2023-03-17T01:52:16.234Z,63.00
2023-03-17T01:54:57.024Z,63.35
2023-03-17T01:57:34.322Z,63.38
2023-03-17T02:00:20.527Z,63.43
2023-03-17T02:02:51.962Z,63.62
2023-03-17T02:05:24.296Z,63.43
2023-03-17T02:07:54.622Z,63.73
2023-03-17T02:10:30.027Z,64.23
2023-03-17T02:13:04.105Z,64.56
2023-03-17T02:15:46.393Z,64.86
2023-03-17T02:18:15.831Z,64.85
2023-03-17T02:20:47.205Z,64.92
2023-03-17T02:23:24.391Z,65.23
2023-03-17T02:25:54.240Z,65.58
2023-03-17T02:28:31.002Z,65.67
2023-03-17T02:31:00.283Z,65.83
2023-03-17T02:33:29.983Z,65.81
2023-03-17T02:35:58.350Z,65.91
2023-03-17T02:38:27.317Z,65.90
2023-03-17T02:40:56.690Z,66.32
2023-03-17T02:43:26.017Z,66.35
2023-03-17T02:45:57.722Z,66.33
2023-03-17T02:48:27.539Z,66.30
2023-03-17T02:50:56.940Z,66.40
2023-03-17T02:53:25.339Z,66.44
2023-03-17T02:55:53.801Z,66.79
2023-03-17T02:58:22.112Z,66.86
2023-03-17T03:00:50.604Z,66.94
2023-03-17T03:03:19.389Z,66.84
2023-03-17T03:05:48.044Z,66.99
2023-03-17T03:08:17.308Z,67.20
2023-03-17T03:10:47.063Z,67.20
2023-03-17T03:13:16.315Z,67.09
2023-03-17T03:15:45.138Z,66.89
2023-03-17T03:18:13.595Z,66.87
2023-03-17T03:20:44.784Z,66.68
2023-03-17T03:23:15.495Z,67.05
2023-03-17T03:25:47.081Z,67.25
2023-03-17T03:28:15.726Z,67.24
2023-03-17T03:30:45.661Z,67.22
2023-03-17T03:33:16.277Z,67.05
2023-03-17T03:35:44.827Z,67.29
2023-03-17T03:38:14.165Z,67.09
2023-03-17T03:40:42.518Z,67.31
2023-03-17T03:43:22.530Z,67.69
2023-03-17T03:45:52.044Z,67.88
2023-03-17T03:48:21.390Z,67.85
2023-03-17T03:50:50.039Z,68.22
2023-03-17T03:53:18.327Z,67.64
2023-03-17T03:55:46.943Z,67.91
2023-03-17T03:58:15.678Z,67.73
2023-03-17T04:00:44.169Z,67.93
2023-03-17T04:03:13.615Z,67.66
2023-03-17T04:05:42.210Z,67.39
2023-03-17T04:08:11.587Z,67.31
2023-03-17T04:10:40.258Z,67.18
2023-03-17T04:13:08.759Z,66.95
2023-03-17T04:15:37.798Z,67.19
2023-03-17T04:18:06.216Z,67.33
2023-03-17T04:20:34.738Z,67.39
2023-03-17T04:23:03.158Z,67.34
2023-03-17T04:25:31.823Z,67.03
2023-03-17T04:31:39.917Z,67.60
2023-03-17T04:34:15.881Z,68.11
2023-03-17T04:36:45.892Z,68.43
2023-03-17T04:39:15.817Z,68.37
2023-03-17T04:41:44.371Z,68.09
2023-03-17T04:44:13.247Z,68.08
2023-03-17T04:46:42.204Z,67.77
2023-03-17T04:49:10.662Z,68.10
2023-03-17T04:51:39.218Z,67.77
2023-03-17T04:54:10.541Z,67.72
2023-03-17T04:56:40.774Z,67.93
2023-03-17T04:59:09.403Z,68.03
2023-03-17T05:01:39.289Z,68.06
2023-03-17T05:04:09.102Z,67.94
2023-03-17T05:06:38.550Z,67.76
2023-03-17T05:09:07.140Z,67.72
2023-03-17T05:11:35.658Z,67.24
2023-03-17T05:14:04.181Z,66.94
2023-03-17T05:16:32.641Z,67.12
2023-03-17T05:19:01.185Z,67.19
2023-03-17T05:21:29.710Z,67.09
2023-03-17T05:23:58.017Z,67.09
2023-03-17T05:26:27.326Z,66.99
2023-03-17T05:28:55.831Z,66.63
2023-03-17T05:31:24.420Z,66.43
2023-03-17T05:33:52.798Z,65.90
2023-03-17T05:36:21.440Z,65.71
2023-03-17T05:38:49.815Z,66.05
2023-03-17T05:41:18.346Z,65.93
2023-03-17T05:43:47.009Z,65.59
2023-03-17T05:46:15.685Z,65.24
2023-03-17T05:48:44.514Z,65.05
2023-03-17T05:51:12.851Z,65.07
2023-03-17T05:53:41.918Z,64.83
2023-03-17T05:56:10.488Z,65.06
2023-03-17T05:58:43.071Z,64.80
2023-03-17T06:01:11.517Z,64.36
2023-03-17T06:03:40.040Z,64.27
2023-03-17T06:06:10.475Z,63.97
2023-03-17T06:08:39.015Z,63.76
2023-03-17T06:11:07.520Z,63.84
2023-03-17T06:13:36.174Z,63.90
2023-03-17T06:16:05.009Z,63.70
2023-03-17T06:18:33.578Z,63.21
2023-03-17T06:21:02.387Z,63.23
2023-03-17T06:23:31.272Z,63.02
2023-03-17T06:25:59.755Z,62.95
2023-03-17T06:28:28.137Z,62.91
2023-03-17T06:30:56.577Z,62.71
2023-03-17T06:33:27.523Z,62.78
2023-03-17T06:35:56.558Z,62.85
2023-03-17T06:38:25.810Z,62.34
2023-03-17T06:40:54.481Z,62.27
2023-03-17T06:43:25.053Z,61.99
2023-03-17T06:45:53.670Z,61.83
2023-03-17T06:48:23.707Z,61.71
2023-03-17T06:50:52.070Z,61.48
2023-03-17T06:53:20.955Z,61.13
2023-03-17T06:55:49.513Z,61.12
2023-03-17T06:58:18.074Z,61.10
2023-03-17T07:00:49.511Z,61.17
2023-03-17T07:03:18.060Z,61.11
2023-03-17T07:05:47.114Z,61.24
2023-03-17T07:08:16.024Z,61.18
2023-03-17T07:10:46.188Z,60.71
2023-03-17T07:13:14.923Z,60.21
2023-03-17T07:15:45.570Z,60.07
2023-03-17T07:21:52.506Z,59.10
2023-03-17T07:24:21.040Z,58.54
2023-03-17T07:26:53.644Z,57.88
2023-03-17T07:29:22.873Z,57.90
2023-03-17T07:31:51.454Z,57.05
2023-03-17T07:34:22.573Z,56.01
2023-03-17T07:36:51.249Z,56.02
2023-03-17T07:39:20.250Z,55.36
2023-03-17T07:41:53.325Z,54.86
2023-03-17T07:44:23.338Z,54.93
2023-03-17T07:46:52.316Z,54.09
2023-03-17T07:49:38.166Z,53.39
2023-03-17T07:52:10.668Z,51.82
2023-03-17T07:54:42.196Z,50.02
2023-03-17T07:57:12.384Z,49.92
2023-03-17T07:59:41.907Z,49.33
2023-03-17T08:02:18.301Z,48.97
2023-03-17T08:04:47.391Z,47.60
2023-03-17T08:07:15.788Z,46.33
2023-03-17T08:09:44.134Z,46.54
2023-03-17T08:12:12.978Z,46.74
2023-03-17T08:14:41.812Z,45.32
2023-03-17T08:17:10.689Z,44.93
2023-03-17T08:19:39.626Z,44.91
2023-03-17T08:22:08.263Z,45.40
2023-03-17T08:24:43.159Z,45.10
2023-03-17T08:27:11.846Z,44.69
2023-03-17T08:29:40.600Z,44.38
2023-03-17T08:32:09.693Z,44.07
2023-03-17T08:34:38.762Z,44.36
2023-03-17T08:37:09.445Z,44.58
2023-03-17T08:39:40.711Z,44.49
2023-03-17T08:42:09.524Z,44.16
2023-03-17T08:44:39.271Z,43.80
2023-03-17T08:47:08.816Z,43.02
2023-03-17T08:49:38.968Z,43.94
2023-03-17T08:52:08.324Z,44.01
2023-03-17T08:54:37.656Z,44.23
2023-03-17T08:57:08.662Z,42.71
2023-03-17T08:59:37.463Z,42.88
2023-03-17T09:02:07.757Z,43.27
2023-03-17T09:04:39.886Z,42.26
2023-03-17T09:07:10.614Z,41.77
2023-03-17T09:09:39.888Z,41.13
2023-03-17T09:12:09.693Z,39.91
2023-03-17T09:14:43.803Z,40.37
2023-03-17T09:17:14.810Z,40.51
2023-03-17T09:19:43.856Z,39.46
2023-03-17T09:22:14.977Z,39.73
2023-03-17T09:24:43.476Z,38.78
2023-03-17T09:27:11.993Z,38.79
2023-03-17T09:29:42.508Z,39.29
2023-03-17T09:32:11.479Z,39.28
2023-03-17T09:34:40.026Z,39.19
2023-03-17T09:37:10.107Z,39.25
2023-03-17T09:39:38.742Z,38.92
2023-03-17T09:42:23.136Z,38.12
2023-03-17T09:45:56.545Z,38.12
2023-03-17T09:48:25.568Z,38.40
2023-03-17T09:51:14.629Z,38.65
2023-03-17T09:54:02.889Z,37.48
2023-03-17T09:56:36.984Z,37.24
2023-03-17T09:59:15.617Z,37.67
2023-03-17T10:01:44.276Z,37.80
2023-03-17T10:04:12.878Z,36.58
2023-03-17T10:06:50.405Z,35.22
2023-03-17T10:09:26.171Z,33.92
2023-03-17T10:12:04.444Z,35.10
2023-03-17T10:14:41.822Z,36.19
2023-03-17T10:17:18.683Z,35.76
2023-03-17T10:20:05.744Z,34.32
2023-03-17T10:22:46.475Z,33.65
2023-03-17T10:25:28.188Z,32.33
2023-03-17T10:28:09.218Z,32.74
2023-03-17T10:30:38.405Z,32.04
2023-03-17T10:33:09.759Z,31.11
2023-03-17T10:35:39.743Z,31.65
2023-03-17T10:38:34.800Z,31.93
2023-03-17T10:41:12.717Z,31.74
2023-03-17T10:43:47.710Z,31.25
2023-03-17T10:46:26.316Z,31.82
2023-03-17T10:48:58.587Z,31.29
2023-03-17T10:51:37.838Z,30.69
2023-03-17T10:54:17.894Z,30.05
